FCO weather

Leonardo da Vinci–Fiumicino Airport
Rome, Lazio, Italy

Public forecast

Using degrees Celsius for public forecast. Weather courtesy of forecast.io.

METAR (pilot weather report)

Retrieved 2017/10/24 06:20 UTC (18 minutes ago):

LIRF 240620Z 32004KT CAVOK 10/03 Q1016 BECMG 35015G25KT

TAF (pilot weather forecast)

Retrieved 2017/10/24 06:25 UTC (13 minutes ago):

TAF LIRF 240500Z 2406/2512 02008KT CAVOK BECMG 2407/2409 01018KT